Time;durP1;ratioP1;P1;durP2;ratioP2;P2;SDS_P1;SDS_P2;PMS_P1;PMS_P2;Temp;Humidity;BMP_temperature;BMP_pressure;BME280_temperature;BME280_humidity;BME280_pressure;Samples;Min_cycle;Max_cycle;Signal;HPM_P1;HPM_P2
2021/06/18 00:02:15;;;;;;;8.03;7.10;;;;;;;;;;4971838;28;20423;-50
2021/06/18 00:04:41;;;;;;;9.83;6.50;;;;;;;;;;4972143;28;20464;-48
2021/06/18 00:07:07;;;;;;;8.70;6.40;;;;;;;;;;4971820;28;20401;-49
2021/06/18 00:09:33;;;;;;;9.57;7.70;;;;;;;;;;4971939;28;20409;-48
2021/06/18 00:11:59;;;;;;;7.87;7.13;;;;;;;;;;4972222;28;20863;-49
2021/06/18 00:14:25;;;;;;;6.60;6.03;;;;;;;;;;4971718;28;20448;-48
2021/06/18 00:16:51;;;;;;;8.40;7.50;;;;;;;;;;4971686;28;20766;-48
2021/06/18 00:19:17;;;;;;;13.33;7.40;;;;;;;;;;4971828;28;20405;-48
2021/06/18 00:21:43;;;;;;;7.50;6.80;;;;;;;;;;4971815;28;20425;-49
2021/06/18 00:24:09;;;;;;;7.20;6.50;;;;;;;;;;4971680;28;20404;-49
2021/06/18 00:26:35;;;;;;;9.90;6.83;;;;;;;;;;4971727;28;20401;-49
2021/06/18 00:29:01;;;;;;;13.07;7.40;;;;;;;;;;4971759;28;20409;-51
2021/06/18 00:31:27;;;;;;;10.80;7.53;;;;;;;;;;4971776;28;20421;-48
2021/06/18 00:33:53;;;;;;;11.80;7.13;;;;;;;;;;4971613;28;20897;-48
2021/06/18 00:36:19;;;;;;;8.57;7.10;;;;;;;;;;4971617;28;20496;-48
2021/06/18 00:38:45;;;;;;;9.10;7.47;;;;;;;;;;4971660;28;20405;-48
2021/06/18 00:41:11;;;;;;;8.20;7.50;;;;;;;;;;4971676;28;20447;-48
2021/06/18 00:43:37;;;;;;;7.97;7.17;;;;;;;;;;4971502;28;20409;-48
2021/06/18 00:46:03;;;;;;;8.30;7.50;;;;;;;;;;4971460;28;20416;-48
2021/06/18 00:48:31;;;;;;;9.43;7.40;;;;;;;;;;4971690;28;20402;-48
2021/06/18 00:50:57;;;;;;;7.43;6.70;;;;;;;;;;4971547;28;20414;-48
2021/06/18 00:53:23;;;;;;;7.57;6.87;;;;;;;;;;4972517;28;20484;-48
2021/06/18 00:55:50;;;;;;;14.07;8.43;;;;;;;;;;4975304;28;20401;-48
2021/06/18 00:58:16;;;;;;;10.70;8.90;;;;;;;;;;4974126;28;20405;-48
2021/06/18 01:00:43;;;;;;;10.97;8.17;;;;;;;;;;4974871;28;20408;-48
2021/06/18 01:03:09;;;;;;;9.60;7.63;;;;;;;;;;4974665;28;20430;-48
2021/06/18 01:05:36;;;;;;;8.87;7.37;;;;;;;;;;4974358;28;20408;-49
2021/06/18 01:08:01;;;;;;;7.53;6.80;;;;;;;;;;4974468;28;20432;-48
2021/06/18 01:10:46;;;;;;;8.03;7.23;;;;;;;;;;4975124;28;20795;-48
2021/06/18 01:13:27;;;;;;;8.73;6.73;;;;;;;;;;4974978;28;20420;-48
2021/06/18 01:16:02;;;;;;;8.43;6.70;;;;;;;;;;4974808;28;20424;-52
2021/06/18 01:18:41;;;;;;;7.90;6.73;;;;;;;;;;4975397;28;20409;-48
2021/06/18 01:21:22;;;;;;;7.73;7.10;;;;;;;;;;4975040;28;20797;-53
2021/06/18 01:24:00;;;;;;;11.10;6.30;;;;;;;;;;4975192;28;20405;-48
2021/06/18 01:26:52;;;;;;;10.30;7.67;;;;;;;;;;4974826;28;20443;-48
2021/06/18 01:29:19;;;;;;;7.10;6.33;;;;;;;;;;4938657;28;20905;-48
2021/06/18 01:31:48;;;;;;;6.97;6.37;;;;;;;;;;4974835;28;20432;-51
2021/06/18 01:34:22;;;;;;;8.20;7.60;;;;;;;;;;4974736;28;20484;-48
2021/06/18 01:36:50;;;;;;;11.47;7.20;;;;;;;;;;4974541;28;20896;-48
2021/06/18 01:39:17;;;;;;;7.67;6.70;;;;;;;;;;4974788;28;20491;-48
2021/06/18 01:41:44;;;;;;;11.60;7.73;;;;;;;;;;4974459;28;20433;-51
2021/06/18 01:44:10;;;;;;;9.07;7.40;;;;;;;;;;4974630;28;20413;-49
2021/06/18 01:46:37;;;;;;;13.07;7.93;;;;;;;;;;4974234;28;20924;-49
2021/06/18 01:49:06;;;;;;;13.97;8.70;;;;;;;;;;4974478;28;20492;-48
2021/06/18 01:51:33;;;;;;;10.30;8.53;;;;;;;;;;4974221;28;20425;-49
2021/06/18 01:53:59;;;;;;;10.00;9.00;;;;;;;;;;4974156;28;20473;-48
2021/06/18 01:56:27;;;;;;;10.70;9.60;;;;;;;;;;4974059;28;20408;-51
2021/06/18 01:58:54;;;;;;;10.77;9.30;;;;;;;;;;4974256;28;20491;-48
2021/06/18 02:01:21;;;;;;;9.30;8.00;;;;;;;;;;4973996;28;20511;-49
2021/06/18 02:03:48;;;;;;;14.37;8.93;;;;;;;;;;4974162;28;20405;-48
2021/06/18 02:06:15;;;;;;;9.53;8.70;;;;;;;;;;4972867;28;20413;-51
2021/06/18 02:08:43;;;;;;;12.10;8.93;;;;;;;;;;4974053;28;20783;-49
2021/06/18 02:11:09;;;;;;;11.67;8.70;;;;;;;;;;4973993;28;20441;-52
2021/06/18 02:13:35;;;;;;;12.50;9.90;;;;;;;;;;4973716;28;20458;-50
2021/06/18 02:16:01;;;;;;;11.13;8.70;;;;;;;;;;4973770;28;20779;-51
2021/06/18 02:18:28;;;;;;;9.80;8.93;;;;;;;;;;4973925;28;20433;-51
2021/06/18 02:20:55;;;;;;;12.50;9.50;;;;;;;;;;4973908;28;20401;-48
2021/06/18 02:23:22;;;;;;;17.17;15.37;;;;;;;;;;4973637;28;20436;-51
2021/06/18 02:25:49;;;;;;;12.70;10.47;;;;;;;;;;4973782;28;20416;-51
2021/06/18 02:28:16;;;;;;;14.00;10.10;;;;;;;;;;4973481;28;20404;-50
2021/06/18 02:30:42;;;;;;;13.40;11.43;;;;;;;;;;4973977;28;20405;-48
2021/06/18 02:33:12;;;;;;;21.57;12.67;;;;;;;;;;4973294;28;20936;-48
2021/06/18 02:35:41;;;;;;;15.53;10.50;;;;;;;;;;4973756;28;20401;-49
2021/06/18 02:38:08;;;;;;;11.43;9.47;;;;;;;;;;4973316;28;20437;-51
2021/06/18 02:40:35;;;;;;;12.07;10.90;;;;;;;;;;4973426;28;20489;-48
2021/06/18 02:43:01;;;;;;;11.60;9.90;;;;;;;;;;4973420;28;20460;-51
2021/06/18 02:45:27;;;;;;;11.70;9.40;;;;;;;;;;4973444;28;20405;-51
2021/06/18 02:47:53;;;;;;;10.80;9.80;;;;;;;;;;4973074;28;20401;-51
2021/06/18 02:50:29;;;;;;;11.10;10.10;;;;;;;;;;4973368;28;20767;-51
2021/06/18 02:52:58;;;;;;;10.57;9.57;;;;;;;;;;4972849;28;20819;-48
2021/06/18 02:55:27;;;;;;;17.23;11.73;;;;;;;;;;4973273;28;20964;-49
2021/06/18 02:57:53;;;;;;;12.17;11.07;;;;;;;;;;4973017;28;20500;-48
2021/06/18 03:00:20;;;;;;;16.80;10.23;;;;;;;;;;4973111;28;20441;-49
2021/06/18 03:03:06;;;;;;;11.60;10.10;;;;;;;;;;4972887;28;20425;-48
2021/06/18 03:05:33;;;;;;;11.40;10.20;;;;;;;;;;4972838;28;20416;-48
2021/06/18 03:08:04;;;;;;;11.60;10.10;;;;;;;;;;4972829;28;20417;-51
2021/06/18 03:10:34;;;;;;;13.73;12.23;;;;;;;;;;4972851;28;20902;-49
2021/06/18 03:13:02;;;;;;;12.53;11.30;;;;;;;;;;4972812;28;20867;-48
2021/06/18 03:15:29;;;;;;;12.80;10.73;;;;;;;;;;4972612;28;20421;-49
2021/06/18 03:17:55;;;;;;;12.50;9.97;;;;;;;;;;4972543;28;20412;-48
2021/06/18 03:20:21;;;;;;;11.20;9.70;;;;;;;;;;4972691;28;20800;-51
2021/06/18 03:22:56;;;;;;;12.03;10.83;;;;;;;;;;4972619;28;20424;-50
2021/06/18 03:25:23;;;;;;;12.73;10.87;;;;;;;;;;4972845;28;20400;-50
2021/06/18 03:27:49;;;;;;;12.53;10.77;;;;;;;;;;4972538;28;20413;-48
2021/06/18 03:30:15;;;;;;;15.30;11.63;;;;;;;;;;4972702;28;20457;-48
2021/06/18 03:32:42;;;;;;;14.53;10.80;;;;;;;;;;4972547;28;20425;-48
2021/06/18 03:35:09;;;;;;;12.63;11.03;;;;;;;;;;4972588;28;20456;-48
2021/06/18 03:37:37;;;;;;;11.77;10.57;;;;;;;;;;4972332;28;20415;-49
2021/06/18 03:40:03;;;;;;;11.10;9.83;;;;;;;;;;4972415;28;20456;-49
2021/06/18 03:42:29;;;;;;;11.40;10.30;;;;;;;;;;4972322;28;21004;-48
2021/06/18 03:44:56;;;;;;;14.97;10.10;;;;;;;;;;4972275;28;20894;-48
2021/06/18 03:47:22;;;;;;;13.07;10.60;;;;;;;;;;4972154;28;20909;-49
2021/06/18 03:49:48;;;;;;;15.47;12.27;;;;;;;;;;4972358;28;20413;-48
2021/06/18 03:52:14;;;;;;;21.47;11.03;;;;;;;;;;4971941;28;20956;-48
2021/06/18 03:54:40;;;;;;;12.73;11.53;;;;;;;;;;4972235;28;20547;-48
2021/06/18 03:57:07;;;;;;;13.47;11.80;;;;;;;;;;4971966;28;20578;-48
2021/06/18 03:59:34;;;;;;;12.63;11.53;;;;;;;;;;4972271;28;20522;-49
2021/06/18 04:02:00;;;;;;;11.00;10.10;;;;;;;;;;4971892;28;20429;-48
2021/06/18 04:04:28;;;;;;;12.40;11.20;;;;;;;;;;4972055;28;20412;-48
2021/06/18 04:06:54;;;;;;;20.30;14.37;;;;;;;;;;4971815;28;20779;-48
2021/06/18 04:09:20;;;;;;;14.90;13.03;;;;;;;;;;4972156;28;20419;-48
2021/06/18 04:11:46;;;;;;;15.17;12.87;;;;;;;;;;4971883;28;20436;-48
2021/06/18 04:14:13;;;;;;;14.13;12.93;;;;;;;;;;4971905;28;20510;-49
2021/06/18 04:16:40;;;;;;;14.80;13.37;;;;;;;;;;4971604;28;20409;-51
2021/06/18 04:19:10;;;;;;;15.13;13.50;;;;;;;;;;4972035;28;20893;-48
2021/06/18 04:21:37;;;;;;;15.13;13.07;;;;;;;;;;4971726;28;20424;-49
2021/06/18 04:24:03;;;;;;;15.47;13.87;;;;;;;;;;4971891;28;20405;-50
2021/06/18 04:26:29;;;;;;;19.37;15.83;;;;;;;;;;4971607;28;20409;-49
2021/06/18 04:28:55;;;;;;;16.00;14.60;;;;;;;;;;4973983;28;20491;-49
2021/06/18 04:31:21;;;;;;;15.77;13.90;;;;;;;;;;4975708;28;20416;-51
2021/06/18 04:33:47;;;;;;;17.03;15.17;;;;;;;;;;4975662;28;20457;-51
2021/06/18 04:36:13;;;;;;;20.43;14.30;;;;;;;;;;4975707;28;20397;-51
2021/06/18 04:38:40;;;;;;;16.57;13.93;;;;;;;;;;4975646;28;20795;-49
2021/06/18 04:41:06;;;;;;;21.00;14.47;;;;;;;;;;4975665;28;20405;-50
2021/06/18 04:43:32;;;;;;;15.83;14.37;;;;;;;;;;4975483;28;20409;-49
2021/06/18 04:45:58;;;;;;;17.83;16.07;;;;;;;;;;4975407;28;20491;-49
2021/06/18 04:48:27;;;;;;;17.10;14.83;;;;;;;;;;4975473;28;20431;-49
2021/06/18 04:50:53;;;;;;;19.40;15.63;;;;;;;;;;4975645;28;20412;-51
2021/06/18 04:53:19;;;;;;;20.50;16.13;;;;;;;;;;4975127;28;20432;-48
2021/06/18 04:55:45;;;;;;;21.60;15.67;;;;;;;;;;4975536;28;20441;-48
2021/06/18 04:58:12;;;;;;;17.80;16.00;;;;;;;;;;4975071;28;20413;-48
2021/06/18 05:00:38;;;;;;;17.90;16.03;;;;;;;;;;4975433;28;20515;-52
2021/06/18 05:03:04;;;;;;;17.87;15.70;;;;;;;;;;4975134;28;20511;-52
2021/06/18 05:05:30;;;;;;;21.63;17.43;;;;;;;;;;4975290;28;20788;-51
2021/06/18 05:07:57;;;;;;;19.67;17.30;;;;;;;;;;4975145;28;20412;-52
2021/06/18 05:10:24;;;;;;;20.33;17.27;;;;;;;;;;4975485;28;20417;-49
2021/06/18 05:12:49;;;;;;;19.73;17.17;;;;;;;;;;4975248;28;20456;-48
2021/06/18 05:15:16;;;;;;;18.40;15.80;;;;;;;;;;4975287;28;20495;-48
2021/06/18 05:17:42;;;;;;;23.57;16.90;;;;;;;;;;4975148;28;20909;-48
2021/06/18 05:20:08;;;;;;;19.40;16.67;;;;;;;;;;4975075;28;20900;-48
2021/06/18 05:22:34;;;;;;;24.30;18.30;;;;;;;;;;4974969;28;20789;-48
2021/06/18 05:25:00;;;;;;;22.80;16.87;;;;;;;;;;4974927;28;20783;-49
2021/06/18 05:27:27;;;;;;;20.73;17.17;;;;;;;;;;4974813;28;20416;-48
2021/06/18 05:29:53;;;;;;;20.60;17.47;;;;;;;;;;4974757;28;20405;-51
2021/06/18 05:32:19;;;;;;;26.20;20.00;;;;;;;;;;4974902;28;20432;-52
2021/06/18 05:34:45;;;;;;;18.80;16.90;;;;;;;;;;4974515;28;20457;-52
2021/06/18 05:37:11;;;;;;;19.80;17.17;;;;;;;;;;4974904;28;20776;-52
2021/06/18 05:39:37;;;;;;;18.43;16.53;;;;;;;;;;4974196;28;20415;-52
2021/06/18 05:42:03;;;;;;;24.93;16.70;;;;;;;;;;4974480;28;20425;-51
2021/06/18 05:44:29;;;;;;;17.80;15.43;;;;;;;;;;4974342;28;20441;-51
2021/06/18 05:46:55;;;;;;;18.87;16.90;;;;;;;;;;4974395;28;20471;-49
2021/06/18 05:49:21;;;;;;;20.50;17.70;;;;;;;;;;4974656;28;20409;-49
2021/06/18 05:51:47;;;;;;;19.33;17.33;;;;;;;;;;4975027;28;20947;-49
2021/06/18 05:54:14;;;;;;;17.97;16.27;;;;;;;;;;4974457;28;20555;-49
2021/06/18 05:56:40;;;;;;;20.47;15.27;;;;;;;;;;4974231;28;20409;-49
2021/06/18 05:59:06;;;;;;;17.47;15.67;;;;;;;;;;4974619;28;20452;-49
2021/06/18 06:01:32;;;;;;;19.93;16.67;;;;;;;;;;4974643;28;20417;-49
2021/06/18 06:03:59;;;;;;;17.27;15.50;;;;;;;;;;4974440;28;20761;-49
2021/06/18 06:06:26;;;;;;;23.30;16.60;;;;;;;;;;4974264;28;20770;-49
2021/06/18 06:08:53;;;;;;;24.20;15.57;;;;;;;;;;4974615;28;20405;-49
2021/06/18 06:11:20;;;;;;;18.27;16.27;;;;;;;;;;4974497;28;20424;-49
2021/06/18 06:13:46;;;;;;;18.00;16.20;;;;;;;;;;4974489;28;20460;-49
2021/06/18 06:16:12;;;;;;;17.00;14.63;;;;;;;;;;4974507;28;20909;-49
2021/06/18 06:18:38;;;;;;;18.10;16.30;;;;;;;;;;4974705;28;20401;-49
2021/06/18 06:21:04;;;;;;;22.20;16.27;;;;;;;;;;4973785;28;20556;-49
2021/06/18 06:23:30;;;;;;;16.97;15.13;;;;;;;;;;4973895;28;20497;-49
2021/06/18 06:25:56;;;;;;;18.23;14.40;;;;;;;;;;4973850;28;20826;-49
2021/06/18 06:28:22;;;;;;;21.60;16.10;;;;;;;;;;4973927;28;20906;-49
2021/06/18 06:30:48;;;;;;;19.57;17.50;;;;;;;;;;4973732;28;20771;-49
2021/06/18 06:33:14;;;;;;;16.60;14.80;;;;;;;;;;4973549;28;20487;-49
2021/06/18 06:35:40;;;;;;;26.13;16.13;;;;;;;;;;4973820;28;20405;-49
2021/06/18 06:38:06;;;;;;;23.60;16.90;;;;;;;;;;4973299;28;20849;-49
2021/06/18 06:40:32;;;;;;;16.60;14.90;;;;;;;;;;4973661;28;20436;-49
2021/06/18 06:42:58;;;;;;;14.97;13.07;;;;;;;;;;4973254;28;20937;-48
2021/06/18 06:45:24;;;;;;;15.93;14.13;;;;;;;;;;4973543;28;20795;-49
2021/06/18 06:47:51;;;;;;;22.20;15.63;;;;;;;;;;4973228;28;20440;-49
2021/06/18 06:50:17;;;;;;;18.67;15.37;;;;;;;;;;4972996;28;20866;-49
2021/06/18 06:52:43;;;;;;;18.00;16.30;;;;;;;;;;4972517;28;20441;-49
2021/06/18 06:55:10;;;;;;;16.30;13.63;;;;;;;;;;4973460;28;20464;-49
2021/06/18 06:57:36;;;;;;;16.67;13.80;;;;;;;;;;4972962;28;20897;-49
2021/06/18 07:00:02;;;;;;;24.33;13.23;;;;;;;;;;4973264;28;20460;-49
2021/06/18 07:02:28;;;;;;;20.93;18.93;;;;;;;;;;4973008;28;20494;-49
2021/06/18 07:04:54;;;;;;;15.87;14.30;;;;;;;;;;4973087;28;20495;-49
2021/06/18 07:07:20;;;;;;;19.87;13.30;;;;;;;;;;4972829;28;20409;-49
2021/06/18 07:09:46;;;;;;;21.00;15.67;;;;;;;;;;4974514;28;20428;-49
2021/06/18 07:12:12;;;;;;;15.77;14.27;;;;;;;;;;4990545;28;20527;-49
2021/06/18 07:14:41;;;;;;;13.93;12.57;;;;;;;;;;4992329;28;20546;-48
2021/06/18 07:17:07;;;;;;;16.77;13.60;;;;;;;;;;4992232;28;21118;-50
2021/06/18 07:19:34;;;;;;;13.90;12.57;;;;;;;;;;4992306;28;20410;-50
2021/06/18 07:22:00;;;;;;;14.10;12.33;;;;;;;;;;4992126;28;20436;-49
2021/06/18 07:24:26;;;;;;;17.53;11.70;;;;;;;;;;4992261;28;20495;-48
2021/06/18 07:26:52;;;;;;;13.33;12.13;;;;;;;;;;4992272;28;20817;-49
2021/06/18 07:29:18;;;;;;;13.60;12.20;;;;;;;;;;4992297;28;20412;-48
2021/06/18 07:31:44;;;;;;;13.23;11.80;;;;;;;;;;4992263;28;20428;-48
2021/06/18 07:34:10;;;;;;;16.93;13.40;;;;;;;;;;4991953;28;20486;-49
2021/06/18 07:36:37;;;;;;;18.00;12.40;;;;;;;;;;4991778;28;20404;-49
2021/06/18 07:39:04;;;;;;;15.30;12.03;;;;;;;;;;4991956;28;20408;-48
2021/06/18 07:41:30;;;;;;;14.50;12.33;;;;;;;;;;4991675;28;20490;-49
2021/06/18 07:43:56;;;;;;;13.33;11.87;;;;;;;;;;4991918;28;20412;-50
2021/06/18 07:46:24;;;;;;;14.03;11.80;;;;;;;;;;4991545;28;20435;-49
2021/06/18 07:48:50;;;;;;;14.70;11.70;;;;;;;;;;4991738;28;20408;-50
2021/06/18 07:51:18;;;;;;;14.50;11.60;;;;;;;;;;4991511;28;20519;-49
2021/06/18 07:53:44;;;;;;;15.97;14.17;;;;;;;;;;4991366;28;20460;-50
2021/06/18 07:56:11;;;;;;;15.20;13.00;;;;;;;;;;4991247;28;20396;-50
2021/06/18 07:58:38;;;;;;;13.67;11.27;;;;;;;;;;4991611;28;20799;-49
2021/06/18 08:01:04;;;;;;;13.50;11.73;;;;;;;;;;4991411;28;20487;-48
2021/06/18 08:03:29;;;;;;;14.53;12.10;;;;;;;;;;4991392;28;20940;-48
2021/06/18 08:05:55;;;;;;;15.43;11.70;;;;;;;;;;4991119;28;20498;-49
2021/06/18 08:08:21;;;;;;;16.07;12.33;;;;;;;;;;4974020;28;20423;-49
2021/06/18 08:10:47;;;;;;;13.60;12.20;;;;;;;;;;4991398;28;20408;-48
2021/06/18 08:13:13;;;;;;;14.10;12.00;;;;;;;;;;4991080;28;20987;-50
2021/06/18 08:15:39;;;;;;;15.13;11.10;;;;;;;;;;4991076;28;20436;-50
2021/06/18 08:18:05;;;;;;;14.33;12.83;;;;;;;;;;4990454;28;20427;-48
2021/06/18 08:20:31;;;;;;;13.00;11.80;;;;;;;;;;4991415;28;20408;-49
2021/06/18 08:22:58;;;;;;;13.40;11.20;;;;;;;;;;4990970;28;20420;-49
2021/06/18 08:25:24;;;;;;;12.70;9.80;;;;;;;;;;4991304;28;20446;-49
2021/06/18 08:27:50;;;;;;;12.80;10.20;;;;;;;;;;4991028;28;20459;-49
2021/06/18 08:30:16;;;;;;;12.30;11.10;;;;;;;;;;4991297;28;20411;-49
2021/06/18 08:32:42;;;;;;;13.53;12.23;;;;;;;;;;4990976;28;20474;-49
2021/06/18 08:35:08;;;;;;;12.40;11.10;;;;;;;;;;4990288;28;21116;-49
2021/06/18 08:37:34;;;;;;;10.63;8.70;;;;;;;;;;4989335;28;20928;-48
2021/06/18 08:40:00;;;;;;;10.17;8.97;;;;;;;;;;4991152;28;20404;-49
2021/06/18 08:42:26;;;;;;;12.47;9.33;;;;;;;;;;4991002;28;20881;-49
2021/06/18 08:44:52;;;;;;;15.30;9.57;;;;;;;;;;4991022;28;20412;-49
2021/06/18 08:47:18;;;;;;;11.07;9.40;;;;;;;;;;4990917;28;20432;-49
2021/06/18 08:49:44;;;;;;;13.27;8.40;;;;;;;;;;4991109;28;20824;-48
2021/06/18 08:52:10;;;;;;;9.27;8.40;;;;;;;;;;4990996;28;20538;-49
2021/06/18 08:54:42;;;;;;;9.93;9.03;;;;;;;;;;4990861;28;20514;-49
2021/06/18 08:57:09;;;;;;;10.37;9.20;;;;;;;;;;4991074;28;20870;-49
2021/06/18 08:59:35;;;;;;;10.20;9.23;;;;;;;;;;4991239;28;20896;-53
2021/06/18 09:02:02;;;;;;;8.60;7.80;;;;;;;;;;4991113;28;20420;-51
2021/06/18 09:04:27;;;;;;;9.97;7.33;;;;;;;;;;4991159;28;20412;-52
2021/06/18 09:06:58;;;;;;;7.90;7.13;;;;;;;;;;4990704;28;20408;-49
2021/06/18 09:09:25;;;;;;;9.87;8.87;;;;;;;;;;4991101;28;20279;-51
2021/06/18 09:11:51;;;;;;;9.60;8.30;;;;;;;;;;4990746;28;20439;-49
2021/06/18 09:14:31;;;;;;;21.33;8.63;;;;;;;;;;4991677;28;20451;-51
2021/06/18 09:17:04;;;;;;;8.60;7.70;;;;;;;;;;4994151;28;20403;-50
2021/06/18 09:19:30;;;;;;;12.00;7.27;;;;;;;;;;4994533;28;20399;-50
2021/06/18 09:22:02;;;;;;;14.13;9.40;;;;;;;;;;4994221;28;20542;-50
2021/06/18 09:24:30;;;;;;;9.60;8.60;;;;;;;;;;4994351;28;20412;-50
2021/06/18 09:26:56;;;;;;;11.53;8.77;;;;;;;;;;4994006;28;20463;-49
2021/06/18 09:29:22;;;;;;;10.50;9.43;;;;;;;;;;4994185;28;20503;-48
2021/06/18 09:31:59;;;;;;;10.87;8.57;;;;;;;;;;4994093;28;20428;-51
2021/06/18 09:34:29;;;;;;;9.80;8.80;;;;;;;;;;4993301;28;20455;-51
2021/06/18 09:37:13;;;;;;;16.60;9.10;;;;;;;;;;4993771;28;20888;-50
2021/06/18 09:39:54;;;;;;;10.40;9.07;;;;;;;;;;4993921;28;20404;-49
2021/06/18 09:42:23;;;;;;;13.63;9.30;;;;;;;;;;4993844;28;20423;-50
2021/06/18 09:45:19;;;;;;;12.47;9.63;;;;;;;;;;4994327;28;20550;-49
2021/06/18 09:47:45;;;;;;;9.40;8.60;;;;;;;;;;4980769;28;20426;-49
2021/06/18 09:50:14;;;;;;;12.33;8.83;;;;;;;;;;4993815;28;20404;-49
2021/06/18 09:52:40;;;;;;;13.67;9.00;;;;;;;;;;4993532;28;20450;-49
2021/06/18 09:55:07;;;;;;;12.80;8.23;;;;;;;;;;4993644;28;20503;-49
2021/06/18 09:57:36;;;;;;;8.40;7.70;;;;;;;;;;4993816;28;20756;-49
2021/06/18 10:00:04;;;;;;;9.27;8.10;;;;;;;;;;4993525;28;20414;-49
2021/06/18 10:02:37;;;;;;;11.23;9.20;;;;;;;;;;4993644;28;21014;-49
2021/06/18 10:05:08;;;;;;;10.00;8.93;;;;;;;;;;4993724;28;20422;-50
2021/06/18 10:07:34;;;;;;;15.07;8.33;;;;;;;;;;4993409;28;20404;-49
2021/06/18 10:10:08;;;;;;;10.97;8.00;;;;;;;;;;4993335;28;20416;-51
2021/06/18 10:12:34;;;;;;;17.70;7.83;;;;;;;;;;4993254;28;20432;-49
2021/06/18 10:15:07;;;;;;;10.93;7.23;;;;;;;;;;4993236;28;20451;-49
2021/06/18 10:17:34;;;;;;;11.43;7.40;;;;;;;;;;4993224;28;20408;-51
2021/06/18 10:20:01;;;;;;;10.90;7.27;;;;;;;;;;4993282;28;20416;-49
2021/06/18 10:22:27;;;;;;;11.37;7.67;;;;;;;;;;4993356;28;20440;-49
2021/06/18 10:25:04;;;;;;;8.80;7.93;;;;;;;;;;4992923;28;20907;-49
2021/06/18 10:27:49;;;;;;;10.90;8.00;;;;;;;;;;4992534;28;20507;-49
2021/06/18 10:30:32;;;;;;;10.10;8.43;;;;;;;;;;4993230;28;20826;-49
2021/06/18 10:33:03;;;;;;;8.83;7.80;;;;;;;;;;4993009;28;20432;-49
2021/06/18 10:35:41;;;;;;;13.50;9.00;;;;;;;;;;4992741;28;20955;-49
2021/06/18 10:38:24;;;;;;;8.20;7.40;;;;;;;;;;4993026;28;20457;-49
2021/06/18 10:40:51;;;;;;;8.90;8.00;;;;;;;;;;4993223;28;20404;-49
2021/06/18 10:43:17;;;;;;;10.37;8.40;;;;;;;;;;4992877;28;20434;-49
2021/06/18 10:45:58;;;;;;;9.70;7.47;;;;;;;;;;4992915;28;20498;-49
2021/06/18 10:48:43;;;;;;;9.40;6.93;;;;;;;;;;4992781;28;20916;-50
2021/06/18 10:51:21;;;;;;;13.13;7.90;;;;;;;;;;4992814;28;20443;-48
2021/06/18 10:53:52;;;;;;;9.70;6.87;;;;;;;;;;4992561;28;20470;-48
2021/06/18 10:56:18;;;;;;;10.47;6.67;;;;;;;;;;4992815;28;20407;-50
2021/06/18 10:59:02;;;;;;;11.47;7.70;;;;;;;;;;4993139;28;20562;-49
2021/06/18 11:01:32;;;;;;;11.47;7.47;;;;;;;;;;4992878;28;20416;-50
2021/06/18 11:03:58;;;;;;;11.13;7.57;;;;;;;;;;4992992;28;20408;-49
2021/06/18 11:06:43;;;;;;;23.43;7.50;;;;;;;;;;4992585;28;20543;-49
2021/06/18 11:09:09;;;;;;;9.10;6.60;;;;;;;;;;4992982;28;20410;-50
2021/06/18 11:11:35;;;;;;;11.37;10.00;;;;;;;;;;4992699;28;20424;-50
2021/06/18 11:14:08;;;;;;;12.50;11.30;;;;;;;;;;4992701;28;20474;-49
2021/06/18 11:16:38;;;;;;;10.13;7.67;;;;;;;;;;4992584;28;20462;-50
2021/06/18 11:19:26;;;;;;;9.20;8.13;;;;;;;;;;4992668;28;20400;-49
2021/06/18 11:21:53;;;;;;;12.60;7.17;;;;;;;;;;4992344;28;20432;-49
2021/06/18 11:24:51;;;;;;;9.50;7.37;;;;;;;;;;4992673;28;20440;-51
2021/06/18 11:27:22;;;;;;;19.40;8.77;;;;;;;;;;4959601;28;20447;-50
2021/06/18 11:29:48;;;;;;;9.07;6.87;;;;;;;;;;4992447;28;20896;-50
2021/06/18 11:32:43;;;;;;;9.00;6.27;;;;;;;;;;4990681;28;20431;-50
2021/06/18 11:35:27;;;;;;;8.67;6.07;;;;;;;;;;4979263;28;20506;-50
2021/06/18 11:37:54;;;;;;;9.77;6.30;;;;;;;;;;4991187;28;20459;-51
2021/06/18 11:40:23;;;;;;;12.60;6.80;;;;;;;;;;4991847;28;20420;-51
2021/06/18 11:42:50;;;;;;;7.80;6.30;;;;;;;;;;4991437;28;20426;-50
2021/06/18 11:45:16;;;;;;;7.00;5.90;;;;;;;;;;4991876;28;20412;-51
2021/06/18 11:47:43;;;;;;;8.13;5.90;;;;;;;;;;4991577;28;20408;-52
2021/06/18 11:50:09;;;;;;;7.50;5.60;;;;;;;;;;4983031;28;20417;-52
2021/06/18 11:52:35;;;;;;;10.17;4.57;;;;;;;;;;4983539;28;20439;-51
2021/06/18 11:55:01;;;;;;;6.77;5.00;;;;;;;;;;4971657;28;20468;-52
2021/06/18 11:57:27;;;;;;;8.70;6.10;;;;;;;;;;4972120;28;20393;-52
2021/06/18 11:59:58;;;;;;;15.40;6.70;;;;;;;;;;4972471;28;20540;-53
2021/06/18 12:02:30;;;;;;;6.30;5.33;;;;;;;;;;4980703;28;20524;-52
2021/06/18 12:05:13;;;;;;;10.07;6.10;;;;;;;;;;4991629;28;20906;-53
2021/06/18 12:07:39;;;;;;;13.20;5.80;;;;;;;;;;4982744;28;20409;-52
2021/06/18 12:10:06;;;;;;;6.23;5.47;;;;;;;;;;4977005;28;20408;-51
2021/06/18 12:12:45;;;;;;;11.20;5.50;;;;;;;;;;4980452;28;20463;-52
2021/06/18 12:15:21;;;;;;;10.20;5.80;;;;;;;;;;4991040;28;20455;-53
2021/06/18 12:17:48;;;;;;;10.63;5.07;;;;;;;;;;4991254;28;20407;-52
2021/06/18 12:20:22;;;;;;;6.33;4.57;;;;;;;;;;4991356;28;20403;-52
2021/06/18 12:22:48;;;;;;;8.80;5.50;;;;;;;;;;4991183;28;20562;-51
2021/06/18 12:25:14;;;;;;;5.97;5.37;;;;;;;;;;4991354;28;20512;-52
2021/06/18 12:27:40;;;;;;;6.77;4.83;;;;;;;;;;4991163;28;20938;-53
2021/06/18 12:30:07;;;;;;;7.90;5.10;;;;;;;;;;4991230;28;20860;-52
2021/06/18 12:32:34;;;;;;;7.63;5.63;;;;;;;;;;4985367;28;20436;-51
2021/06/18 12:35:10;;;;;;;6.17;4.73;;;;;;;;;;4980838;28;20475;-51
2021/06/18 12:37:38;;;;;;;7.40;5.33;;;;;;;;;;4982232;28;20556;-52
2021/06/18 12:40:06;;;;;;;11.40;4.37;;;;;;;;;;4981239;28;20404;-51
2021/06/18 12:42:52;;;;;;;7.90;5.23;;;;;;;;;;4984390;28;20447;-53
2021/06/18 12:45:22;;;;;;;9.20;4.67;;;;;;;;;;4982885;28;20503;-49
2021/06/18 12:47:53;;;;;;;13.70;4.13;;;;;;;;;;4979245;28;21090;-51
2021/06/18 12:50:28;;;;;;;5.57;4.53;;;;;;;;;;4979657;28;20966;-53
2021/06/18 12:52:55;;;;;;;5.80;4.87;;;;;;;;;;4979611;28;20441;-49
2021/06/18 12:55:28;;;;;;;7.63;4.77;;;;;;;;;;4988341;28;21165;-51
2021/06/18 12:58:03;;;;;;;4.73;3.97;;;;;;;;;;4982239;28;20412;-51
2021/06/18 13:00:29;;;;;;;5.60;4.00;;;;;;;;;;4990917;28;20414;-50
2021/06/18 13:02:56;;;;;;;5.37;4.03;;;;;;;;;;4991264;28;20478;-51
2021/06/18 13:05:22;;;;;;;7.73;3.70;;;;;;;;;;4994051;28;20979;-50
2021/06/18 13:07:50;;;;;;;3.50;3.20;;;;;;;;;;4980922;28;20416;-50
2021/06/18 13:10:17;;;;;;;7.00;3.47;;;;;;;;;;4973096;28;20463;-50
2021/06/18 13:12:53;;;;;;;7.30;3.73;;;;;;;;;;4973051;28;20431;-52
2021/06/18 13:15:29;;;;;;;5.13;3.33;;;;;;;;;;4973049;28;20456;-51
2021/06/18 13:17:56;;;;;;;7.77;3.20;;;;;;;;;;4973020;28;20400;-51
2021/06/18 13:20:29;;;;;;;4.47;3.57;;;;;;;;;;4972798;28;20832;-50
2021/06/18 13:22:55;;;;;;;5.30;3.23;;;;;;;;;;4980877;28;20451;-53
2021/06/18 13:25:27;;;;;;;6.00;3.83;;;;;;;;;;4994179;28;20473;-52
2021/06/18 13:27:53;;;;;;;5.13;3.23;;;;;;;;;;4994191;28;20400;-51
2021/06/18 13:30:19;;;;;;;4.13;3.40;;;;;;;;;;4994215;28;20404;-50
2021/06/18 13:32:47;;;;;;;6.23;3.60;;;;;;;;;;4994048;28;20197;-52
2021/06/18 13:35:14;;;;;;;3.67;3.37;;;;;;;;;;4994124;28;21010;-50
2021/06/18 13:37:41;;;;;;;6.73;3.50;;;;;;;;;;4993867;28;20459;-50
2021/06/18 13:40:10;;;;;;;4.63;3.37;;;;;;;;;;4994121;28;20454;-50
2021/06/18 13:42:37;;;;;;;4.20;3.80;;;;;;;;;;4993795;28;20423;-50
2021/06/18 13:45:04;;;;;;;6.80;4.40;;;;;;;;;;4993982;28;20416;-50
2021/06/18 13:47:30;;;;;;;6.47;3.43;;;;;;;;;;4993648;28;20426;-50
2021/06/18 13:50:00;;;;;;;7.67;3.60;;;;;;;;;;4993934;28;20884;-50
2021/06/18 13:52:26;;;;;;;5.10;3.50;;;;;;;;;;4993337;28;20451;-53
2021/06/18 13:54:52;;;;;;;5.27;3.80;;;;;;;;;;4992747;28;20451;-52
2021/06/18 13:57:18;;;;;;;8.20;3.20;;;;;;;;;;4992517;28;20176;-51
2021/06/18 13:59:44;;;;;;;3.70;3.17;;;;;;;;;;4992205;28;20227;-51
2021/06/18 14:02:10;;;;;;;5.90;3.20;;;;;;;;;;4992623;28;20435;-52
2021/06/18 14:04:36;;;;;;;5.43;3.17;;;;;;;;;;4992397;28;20502;-50
2021/06/18 14:07:02;;;;;;;4.40;3.63;;;;;;;;;;4992441;28;20173;-52
2021/06/18 14:09:28;;;;;;;6.53;3.13;;;;;;;;;;4992461;28;20177;-54
2021/06/18 14:11:54;;;;;;;6.60;3.70;;;;;;;;;;4992471;28;20431;-52
2021/06/18 14:14:21;;;;;;;7.47;3.50;;;;;;;;;;4992098;28;20195;-52
2021/06/18 14:16:49;;;;;;;4.33;3.43;;;;;;;;;;4992535;28;20400;-51
2021/06/18 14:19:15;;;;;;;4.03;3.63;;;;;;;;;;4992221;28;20412;-54
2021/06/18 14:21:41;;;;;;;4.10;3.00;;;;;;;;;;4992288;28;20424;-53
2021/06/18 14:24:07;;;;;;;5.50;3.33;;;;;;;;;;4990708;28;20438;-52
2021/06/18 14:26:33;;;;;;;5.93;3.70;;;;;;;;;;4991901;28;20419;-51
2021/06/18 14:28:59;;;;;;;4.23;3.37;;;;;;;;;;4992152;28;20415;-50
2021/06/18 14:31:25;;;;;;;4.07;3.53;;;;;;;;;;4991830;28;20420;-52
2021/06/18 14:33:51;;;;;;;6.20;3.20;;;;;;;;;;4992143;28;20455;-53
2021/06/18 14:36:17;;;;;;;5.60;4.00;;;;;;;;;;4992073;28;20531;-53